Time;durP1;ratioP1;P1;durP2;ratioP2;P2;SDS_P1;SDS_P2;PMS_P1;PMS_P2;Temp;Humidity;BMP_temperature;BMP_pressure;BME280_temperature;BME280_humidity;BME280_pressure;Samples;Min_cycle;Max_cycle;Signal;HPM_P1;HPM_P2
2021/07/21 00:00:56;;;;;;;14.52;8.15;;;;;;;;;;5050380;28;20314;-65
2021/07/21 00:03:22;;;;;;;19.53;8.47;;;;;;;;;;5051328;28;20037;-64
2021/07/21 00:05:47;;;;;;;21.45;7.15;;;;;;;;;;5050913;28;20786;-64
2021/07/21 00:08:13;;;;;;;17.42;7.97;;;;;;;;;;5050364;28;20493;-64
2021/07/21 00:10:39;;;;;;;14.02;7.10;;;;;;;;;;5051056;28;20027;-64
2021/07/21 00:18:31;;;;;;;20.15;7.45;;;;;;;;;;5049565;28;20308;-64
2021/07/21 00:20:57;;;;;;;15.52;7.60;;;;;;;;;;5050123;28;20060;-64
2021/07/21 00:23:22;;;;;;;21.80;7.53;;;;;;;;;;5050902;28;20444;-64
2021/07/21 00:25:48;;;;;;;16.63;7.07;;;;;;;;;;5049462;28;20027;-64
2021/07/21 00:28:13;;;;;;;12.65;6.22;;;;;;;;;;5050474;28;20020;-64
2021/07/21 00:30:39;;;;;;;15.70;8.30;;;;;;;;;;5050494;28;20531;-64
2021/07/21 00:33:04;;;;;;;11.90;6.90;;;;;;;;;;5050435;28;20458;-64
2021/07/21 00:35:29;;;;;;;22.40;7.90;;;;;;;;;;5050706;28;20025;-64
2021/07/21 00:37:54;;;;;;;14.07;7.07;;;;;;;;;;5050545;28;20274;-63
2021/07/21 00:40:19;;;;;;;16.20;7.30;;;;;;;;;;5050104;28;20343;-64
2021/07/21 00:42:45;;;;;;;20.23;6.87;;;;;;;;;;5050324;28;20259;-64
2021/07/21 00:45:11;;;;;;;14.85;7.63;;;;;;;;;;5049979;28;20271;-64
2021/07/21 00:47:36;;;;;;;14.95;7.88;;;;;;;;;;5049867;28;20048;-64
2021/07/21 00:50:01;;;;;;;15.93;8.32;;;;;;;;;;5052207;28;20031;-64
2021/07/21 00:52:26;;;;;;;15.82;7.03;;;;;;;;;;5049974;28;20496;-64
2021/07/21 00:54:52;;;;;;;18.80;7.30;;;;;;;;;;5050629;28;20028;-64
2021/07/21 00:57:17;;;;;;;15.73;7.75;;;;;;;;;;5049418;28;20267;-64
2021/07/21 00:59:43;;;;;;;15.45;8.05;;;;;;;;;;5049629;28;20021;-64
2021/07/21 01:02:08;;;;;;;18.75;7.25;;;;;;;;;;5049101;28;20041;-64
2021/07/21 01:04:35;;;;;;;15.90;8.20;;;;;;;;;;5049677;28;20028;-64
2021/07/21 01:07:00;;;;;;;17.40;8.05;;;;;;;;;;5049976;28;20261;-64
2021/07/21 01:09:26;;;;;;;22.35;7.20;;;;;;;;;;5049245;28;20092;-64
2021/07/21 01:11:52;;;;;;;23.45;8.40;;;;;;;;;;5050216;28;20057;-64
2021/07/21 01:14:37;;;;;;;14.17;7.97;;;;;;;;;;5050160;28;20025;-64
2021/07/21 01:17:09;;;;;;;21.48;7.25;;;;;;;;;;5024330;28;20356;-64
2021/07/21 01:19:46;;;;;;;18.73;7.68;;;;;;;;;;5049107;28;20033;-64
2021/07/21 01:22:16;;;;;;;18.45;7.03;;;;;;;;;;5049578;28;20032;-64
2021/07/21 01:25:00;;;;;;;12.93;7.00;;;;;;;;;;5049668;28;20094;-64
2021/07/21 01:27:25;;;;;;;20.02;6.97;;;;;;;;;;5049502;28;20021;-63
2021/07/21 01:29:52;;;;;;;11.95;7.15;;;;;;;;;;5056264;28;20043;-64
2021/07/21 01:32:18;;;;;;;14.68;7.65;;;;;;;;;;5049880;28;20067;-64
2021/07/21 01:34:44;;;;;;;17.10;7.38;;;;;;;;;;5049605;28;20420;-64
2021/07/21 01:37:09;;;;;;;13.90;7.40;;;;;;;;;;5049441;28;20013;-64
2021/07/21 01:39:38;;;;;;;14.38;7.28;;;;;;;;;;5048873;28;20036;-64
2021/07/21 01:42:04;;;;;;;14.85;6.78;;;;;;;;;;5049818;28;20120;-64
2021/07/21 01:44:31;;;;;;;11.90;6.78;;;;;;;;;;5048496;28;20029;-64
2021/07/21 01:47:00;;;;;;;18.10;8.45;;;;;;;;;;5049516;28;20104;-64
2021/07/21 01:49:27;;;;;;;16.38;7.07;;;;;;;;;;5048891;28;20311;-64
2021/07/21 01:51:54;;;;;;;16.48;7.57;;;;;;;;;;5049802;28;20166;-64
2021/07/21 01:54:20;;;;;;;17.85;7.95;;;;;;;;;;5048731;28;20027;-64
2021/07/21 01:56:45;;;;;;;13.13;7.00;;;;;;;;;;5049666;28;20104;-64
2021/07/21 01:59:11;;;;;;;14.20;7.03;;;;;;;;;;5048323;28;20033;-64
2021/07/21 02:01:37;;;;;;;16.65;7.45;;;;;;;;;;5048930;28;20032;-64
2021/07/21 02:04:03;;;;;;;20.50;7.53;;;;;;;;;;5049216;28;20025;-64
2021/07/21 02:06:30;;;;;;;13.88;6.75;;;;;;;;;;5049340;28;20212;-64
2021/07/21 02:08:56;;;;;;;15.52;6.30;;;;;;;;;;5048345;28;20013;-64
2021/07/21 02:11:22;;;;;;;14.20;7.95;;;;;;;;;;5049565;28;20106;-64
2021/07/21 02:13:48;;;;;;;21.83;7.43;;;;;;;;;;5048423;28;20068;-64
2021/07/21 02:16:13;;;;;;;17.45;7.53;;;;;;;;;;5048671;28;20059;-64
2021/07/21 02:18:39;;;;;;;13.85;7.60;;;;;;;;;;5048841;28;20125;-64
2021/07/21 02:21:05;;;;;;;22.35;8.30;;;;;;;;;;5049239;28;20048;-64
2021/07/21 02:23:33;;;;;;;17.70;7.80;;;;;;;;;;5049016;28;20032;-64
2021/07/21 02:25:59;;;;;;;15.40;6.88;;;;;;;;;;5048315;28;20025;-64
2021/07/21 02:28:24;;;;;;;15.43;6.78;;;;;;;;;;5047705;28;20020;-64
2021/07/21 02:30:51;;;;;;;12.48;7.60;;;;;;;;;;5049433;28;20029;-64
2021/07/21 02:33:19;;;;;;;11.15;6.88;;;;;;;;;;5031434;28;20021;-64
2021/07/21 02:35:44;;;;;;;12.95;6.95;;;;;;;;;;5049214;28;20025;-63
2021/07/21 02:38:09;;;;;;;16.00;7.88;;;;;;;;;;5048710;28;20033;-64
2021/07/21 02:40:34;;;;;;;14.23;7.43;;;;;;;;;;5049070;28;20059;-64
2021/07/21 02:43:00;;;;;;;18.63;7.78;;;;;;;;;;5051492;28;20286;-64
2021/07/21 02:45:25;;;;;;;21.15;7.85;;;;;;;;;;5052143;28;20292;-64
2021/07/21 02:47:51;;;;;;;16.35;7.57;;;;;;;;;;5050472;28;20025;-64
2021/07/21 02:50:16;;;;;;;17.73;8.07;;;;;;;;;;5052598;28;20035;-64
2021/07/21 02:52:47;;;;;;;13.13;7.03;;;;;;;;;;5051120;28;20389;-64
2021/07/21 02:55:12;;;;;;;17.95;6.93;;;;;;;;;;5051918;28;20170;-64
2021/07/21 02:57:42;;;;;;;21.65;8.23;;;;;;;;;;5051889;28;20397;-64
2021/07/21 03:00:12;;;;;;;12.07;7.25;;;;;;;;;;5052201;28;20025;-64
2021/07/21 03:02:38;;;;;;;10.85;6.97;;;;;;;;;;5052728;28;20028;-63
2021/07/21 03:05:04;;;;;;;13.40;7.32;;;;;;;;;;5051333;28;20029;-63
2021/07/21 03:07:30;;;;;;;16.30;6.57;;;;;;;;;;5050874;28;20300;-64
2021/07/21 03:09:55;;;;;;;13.23;7.50;;;;;;;;;;5050900;28;20459;-64
2021/07/21 03:12:22;;;;;;;18.33;7.25;;;;;;;;;;5051746;28;20079;-64
2021/07/21 03:14:49;;;;;;;13.80;7.47;;;;;;;;;;5051637;28;20107;-64
2021/07/21 03:17:15;;;;;;;17.00;8.65;;;;;;;;;;5051847;28;20087;-64
2021/07/21 03:19:43;;;;;;;16.13;8.07;;;;;;;;;;5051402;28;20025;-63
2021/07/21 03:22:09;;;;;;;15.40;7.25;;;;;;;;;;5052115;28;20487;-63
2021/07/21 03:24:35;;;;;;;11.38;6.85;;;;;;;;;;5051015;28;20021;-63
2021/07/21 03:27:01;;;;;;;16.50;6.78;;;;;;;;;;5051338;28;20420;-64
2021/07/21 03:29:28;;;;;;;14.15;7.30;;;;;;;;;;5052004;28;20108;-64
2021/07/21 03:31:54;;;;;;;14.07;6.95;;;;;;;;;;5051762;28;20111;-64
2021/07/21 03:34:22;;;;;;;17.30;7.65;;;;;;;;;;5051020;28;20401;-64
2021/07/21 03:36:48;;;;;;;13.55;7.55;;;;;;;;;;5051705;28;20454;-64
2021/07/21 03:39:14;;;;;;;13.73;7.18;;;;;;;;;;5051154;28;20048;-65
2021/07/21 03:41:39;;;;;;;14.35;6.75;;;;;;;;;;5051361;28;20025;-64
2021/07/21 03:44:06;;;;;;;17.45;7.28;;;;;;;;;;5050575;28;20021;-64
2021/07/21 03:46:31;;;;;;;13.48;6.93;;;;;;;;;;5048471;28;20025;-64
2021/07/21 03:48:59;;;;;;;17.05;7.72;;;;;;;;;;5050590;28;20021;-64
2021/07/21 03:51:24;;;;;;;12.85;7.57;;;;;;;;;;5050903;28;20028;-64
2021/07/21 03:53:50;;;;;;;17.52;7.03;;;;;;;;;;5054583;28;20021;-64
2021/07/21 03:56:16;;;;;;;17.88;8.00;;;;;;;;;;5050826;28;20021;-64
2021/07/21 03:58:41;;;;;;;24.88;8.13;;;;;;;;;;5050955;28;20025;-64
2021/07/21 04:01:07;;;;;;;19.70;7.60;;;;;;;;;;5051070;28;20154;-64
2021/07/21 04:03:33;;;;;;;12.68;7.22;;;;;;;;;;5051367;28;20347;-63
2021/07/21 04:05:59;;;;;;;15.80;7.43;;;;;;;;;;5050975;28;20104;-64
2021/07/21 04:08:25;;;;;;;17.27;7.60;;;;;;;;;;5051233;28;20021;-64
2021/07/21 04:10:52;;;;;;;12.90;6.78;;;;;;;;;;5050994;28;20028;-64
2021/07/21 04:13:17;;;;;;;15.48;7.25;;;;;;;;;;5051287;28;20036;-64
2021/07/21 04:15:42;;;;;;;12.07;6.47;;;;;;;;;;5049878;28;20021;-64
2021/07/21 04:18:08;;;;;;;19.80;6.70;;;;;;;;;;5049783;28;20032;-64
2021/07/21 04:20:33;;;;;;;15.50;6.90;;;;;;;;;;5050590;28;20486;-63
2021/07/21 04:22:59;;;;;;;19.08;8.38;;;;;;;;;;5051176;28;20056;-64
2021/07/21 04:25:26;;;;;;;14.63;7.65;;;;;;;;;;5049862;28;20122;-64
2021/07/21 04:27:51;;;;;;;11.75;6.63;;;;;;;;;;5050079;28;20022;-64
2021/07/21 04:30:16;;;;;;;14.15;6.90;;;;;;;;;;5050555;28;20028;-64
2021/07/21 04:32:42;;;;;;;18.55;7.20;;;;;;;;;;5051047;28;20025;-64
2021/07/21 04:35:10;;;;;;;15.60;6.95;;;;;;;;;;5050559;28;20112;-64
2021/07/21 04:37:35;;;;;;;15.15;7.28;;;;;;;;;;5050999;28;20049;-64
2021/07/21 04:40:01;;;;;;;13.00;7.03;;;;;;;;;;5050396;28;20503;-64
2021/07/21 04:42:26;;;;;;;13.70;6.45;;;;;;;;;;5050712;28;20440;-63
2021/07/21 04:44:52;;;;;;;16.08;6.57;;;;;;;;;;5048930;28;20111;-64
2021/07/21 04:47:17;;;;;;;15.02;6.72;;;;;;;;;;5049558;28;20032;-64
2021/07/21 04:49:44;;;;;;;16.45;6.57;;;;;;;;;;5049903;28;20017;-64
2021/07/21 04:52:09;;;;;;;18.98;7.13;;;;;;;;;;5050618;28;20020;-64
2021/07/21 04:54:34;;;;;;;14.13;6.32;;;;;;;;;;5049261;28;20025;-64
2021/07/21 04:57:00;;;;;;;15.68;6.65;;;;;;;;;;5049434;28;20111;-63
2021/07/21 04:59:25;;;;;;;13.45;6.35;;;;;;;;;;5049425;28;20031;-64
2021/07/21 05:01:51;;;;;;;17.10;6.18;;;;;;;;;;5050128;28;20087;-64
2021/07/21 05:04:17;;;;;;;10.63;5.63;;;;;;;;;;5048417;28;20072;-63
2021/07/21 05:06:42;;;;;;;12.95;5.57;;;;;;;;;;5047964;28;20021;-64
2021/07/21 05:09:08;;;;;;;14.18;6.32;;;;;;;;;;5041980;28;20111;-63
2021/07/21 05:11:33;;;;;;;13.80;6.25;;;;;;;;;;5047044;28;20067;-64
2021/07/21 05:13:58;;;;;;;13.68;6.00;;;;;;;;;;5046766;28;20028;-64
2021/07/21 05:16:23;;;;;;;11.77;5.55;;;;;;;;;;5047873;28;20071;-64
2021/07/21 05:18:49;;;;;;;13.13;6.07;;;;;;;;;;5046946;28;20025;-64
2021/07/21 05:21:14;;;;;;;9.45;5.45;;;;;;;;;;5047982;28;20024;-64
2021/07/21 05:23:39;;;;;;;13.20;6.18;;;;;;;;;;5047445;28;20107;-64
2021/07/21 05:26:07;;;;;;;11.40;6.15;;;;;;;;;;5046791;28;20029;-64
2021/07/21 05:28:34;;;;;;;10.52;5.35;;;;;;;;;;5054745;28;20025;-64
2021/07/21 05:30:59;;;;;;;12.70;6.32;;;;;;;;;;5046816;28;20033;-64
2021/07/21 05:33:24;;;;;;;9.53;5.47;;;;;;;;;;5045395;28;20374;-64
2021/07/21 05:35:51;;;;;;;12.70;6.13;;;;;;;;;;5047122;28;20346;-65
2021/07/21 05:38:16;;;;;;;12.93;6.38;;;;;;;;;;5047325;28;20271;-64
2021/07/21 05:40:42;;;;;;;14.30;6.03;;;;;;;;;;5047458;28;20103;-65
2021/07/21 05:43:07;;;;;;;10.32;6.03;;;;;;;;;;5047926;28;20412;-64
2021/07/21 05:45:32;;;;;;;11.45;5.47;;;;;;;;;;5044848;28;20032;-65
2021/07/21 05:47:57;;;;;;;8.20;4.55;;;;;;;;;;5047993;28;20020;-64
2021/07/21 05:50:22;;;;;;;9.05;4.63;;;;;;;;;;5049686;28;20029;-64
2021/07/21 05:52:48;;;;;;;10.70;5.07;;;;;;;;;;5048911;28;20025;-64
2021/07/21 05:55:13;;;;;;;13.15;5.88;;;;;;;;;;5049289;28;20313;-65
2021/07/21 05:57:38;;;;;;;10.93;4.53;;;;;;;;;;5048896;28;20052;-63
2021/07/21 06:00:07;;;;;;;11.38;4.93;;;;;;;;;;5066228;22;20033;-82
2021/07/21 06:02:32;;;;;;;9.88;5.18;;;;;;;;;;5068857;28;20081;-80
2021/07/21 06:04:58;;;;;;;10.50;5.03;;;;;;;;;;5063514;28;20166;-80
2021/07/21 06:07:23;;;;;;;10.38;4.80;;;;;;;;;;5069488;28;20269;-80
2021/07/21 06:09:48;;;;;;;10.98;5.15;;;;;;;;;;5075100;28;20042;-80
2021/07/21 06:12:13;;;;;;;12.70;4.90;;;;;;;;;;5074044;28;20036;-80
2021/07/21 06:14:38;;;;;;;13.90;5.22;;;;;;;;;;5077033;28;20706;-80
2021/07/21 06:17:04;;;;;;;10.13;5.20;;;;;;;;;;5059941;28;20031;-80
2021/07/21 06:19:29;;;;;;;9.52;4.95;;;;;;;;;;5081090;28;20019;-80
2021/07/21 06:21:57;;;;;;;10.18;4.72;;;;;;;;;;5061750;28;20062;-80
2021/07/21 06:24:22;;;;;;;9.18;4.82;;;;;;;;;;5079283;28;20017;-80
2021/07/21 06:26:47;;;;;;;16.73;4.95;;;;;;;;;;5061746;28;20122;-80
2021/07/21 06:29:12;;;;;;;14.95;4.90;;;;;;;;;;5075933;28;20072;-80
2021/07/21 06:31:37;;;;;;;12.70;5.30;;;;;;;;;;5081198;28;20015;-80
2021/07/21 06:34:03;;;;;;;12.73;4.60;;;;;;;;;;5080735;28;20025;-80
2021/07/21 06:36:28;;;;;;;8.95;4.70;;;;;;;;;;5061580;28;20123;-80
2021/07/21 06:38:53;;;;;;;9.60;4.83;;;;;;;;;;5061302;28;20380;-80
2021/07/21 06:41:19;;;;;;;14.13;4.78;;;;;;;;;;5061394;28;20761;-80
2021/07/21 06:43:44;;;;;;;9.15;5.25;;;;;;;;;;5079331;28;20016;-80
2021/07/21 06:46:09;;;;;;;8.85;4.60;;;;;;;;;;5061790;28;20036;-80
2021/07/21 06:48:34;;;;;;;8.75;4.53;;;;;;;;;;5058238;28;20050;-80
2021/07/21 06:50:59;;;;;;;11.60;4.57;;;;;;;;;;5076342;28;20472;-80
2021/07/21 06:53:25;;;;;;;7.00;3.95;;;;;;;;;;5061682;28;20290;-80
2021/07/21 06:55:50;;;;;;;9.20;4.97;;;;;;;;;;5080210;28;20051;-80
2021/07/21 06:58:15;;;;;;;16.52;5.00;;;;;;;;;;5058952;28;20074;-80
2021/07/21 07:00:41;;;;;;;12.75;4.95;;;;;;;;;;5080515;28;20035;-80
2021/07/21 07:03:06;;;;;;;9.25;4.90;;;;;;;;;;5078144;28;20509;-80
2021/07/21 07:05:31;;;;;;;8.17;4.17;;;;;;;;;;5075073;28;20077;-80
2021/07/21 07:07:56;;;;;;;7.03;4.60;;;;;;;;;;5040360;28;20259;-80
2021/07/21 07:10:22;;;;;;;10.90;4.47;;;;;;;;;;5038680;28;20498;-80
2021/07/21 07:12:47;;;;;;;14.00;4.70;;;;;;;;;;5056149;28;20248;-80
2021/07/21 07:15:12;;;;;;;8.85;4.35;;;;;;;;;;5056751;28;20032;-80
2021/07/21 07:17:37;;;;;;;7.80;5.15;;;;;;;;;;5079319;28;20024;-80
2021/07/21 07:20:03;;;;;;;6.93;4.18;;;;;;;;;;5059816;28;20025;-80
2021/07/21 07:22:28;;;;;;;7.43;4.60;;;;;;;;;;5079321;28;20027;-80
2021/07/21 07:24:54;;;;;;;11.52;4.60;;;;;;;;;;5078502;28;20034;-79
2021/07/21 07:27:19;;;;;;;11.23;4.38;;;;;;;;;;5077806;28;20012;-80
2021/07/21 07:29:44;;;;;;;7.82;4.85;;;;;;;;;;5057195;28;20024;-80
2021/07/21 07:32:10;;;;;;;9.60;4.05;;;;;;;;;;5061861;28;20027;-80
2021/07/21 07:34:35;;;;;;;9.20;4.35;;;;;;;;;;5078834;28;20021;-80
2021/07/21 07:37:00;;;;;;;8.70;4.93;;;;;;;;;;5057560;28;20080;-80
2021/07/21 07:39:25;;;;;;;11.80;4.50;;;;;;;;;;5055364;28;20495;-80
2021/07/21 07:41:51;;;;;;;7.20;4.03;;;;;;;;;;5072878;28;20266;-81
2021/07/21 07:44:16;;;;;;;10.02;4.13;;;;;;;;;;5051460;28;20024;-81
2021/07/21 07:46:41;;;;;;;6.45;4.03;;;;;;;;;;5053043;28;20522;-81
2021/07/21 07:49:07;;;;;;;8.63;4.30;;;;;;;;;;5070137;28;20039;-81
2021/07/21 07:51:33;;;;;;;6.07;4.50;;;;;;;;;;5071458;28;20020;-81
2021/07/21 07:53:58;;;;;;;6.20;4.22;;;;;;;;;;5070506;28;20021;-83
2021/07/21 07:56:24;;;;;;;7.05;4.18;;;;;;;;;;5052716;28;20031;-81
2021/07/21 07:58:49;;;;;;;6.32;3.92;;;;;;;;;;5069402;28;20502;-82
2021/07/21 08:01:14;;;;;;;5.50;3.60;;;;;;;;;;5052564;28;20480;-81
2021/07/21 08:03:40;;;;;;;5.00;3.30;;;;;;;;;;5068705;28;20024;-81
2021/07/21 08:06:05;;;;;;;6.97;3.43;;;;;;;;;;5069863;28;20285;-81
2021/07/21 08:08:30;;;;;;;8.70;3.85;;;;;;;;;;5068912;28;20326;-81
2021/07/21 08:10:56;;;;;;;5.22;3.33;;;;;;;;;;5070888;28;20024;-81
2021/07/21 08:13:22;;;;;;;7.88;3.40;;;;;;;;;;5070119;28;20491;-81
2021/07/21 08:15:47;;;;;;;5.57;3.60;;;;;;;;;;5051374;28;20028;-81
2021/07/21 08:18:13;;;;;;;8.02;4.00;;;;;;;;;;5068589;28;20540;-80
2021/07/21 08:20:38;;;;;;;8.73;3.70;;;;;;;;;;5070243;28;20482;-81
2021/07/21 08:23:04;;;;;;;5.93;3.50;;;;;;;;;;5069252;28;20756;-80
2021/07/21 08:25:29;;;;;;;7.13;4.18;;;;;;;;;;5071882;28;20032;-80
2021/07/21 08:27:55;;;;;;;7.35;3.92;;;;;;;;;;5069331;28;20016;-80
2021/07/21 08:30:20;;;;;;;5.97;3.55;;;;;;;;;;5070780;28;20042;-80
2021/07/21 08:32:49;;;;;;;8.27;4.20;;;;;;;;;;5068866;28;20037;-80
2021/07/21 08:35:15;;;;;;;6.95;3.95;;;;;;;;;;5071945;28;20263;-80
2021/07/21 08:37:41;;;;;;;5.28;2.78;;;;;;;;;;5041466;28;20020;-80
2021/07/21 08:40:07;;;;;;;7.22;3.53;;;;;;;;;;5059778;28;20103;-79
2021/07/21 08:42:32;;;;;;;6.03;3.60;;;;;;;;;;5053216;28;20039;-80
2021/07/21 08:44:58;;;;;;;7.32;3.15;;;;;;;;;;5053337;28;20387;-80
2021/07/21 08:47:23;;;;;;;6.50;3.38;;;;;;;;;;5052486;28;20016;-80
2021/07/21 08:49:48;;;;;;;8.98;4.20;;;;;;;;;;5052038;28;20031;-80
2021/07/21 08:52:15;;;;;;;7.38;3.60;;;;;;;;;;5071268;28;20095;-80
2021/07/21 08:54:41;;;;;;;9.30;4.55;;;;;;;;;;5071003;28;20491;-80
2021/07/21 08:57:07;;;;;;;9.07;4.03;;;;;;;;;;5071603;28;20016;-80
2021/07/21 08:59:32;;;;;;;6.43;3.93;;;;;;;;;;5069991;28;20028;-80
2021/07/21 09:01:58;;;;;;;7.03;3.85;;;;;;;;;;5052989;28;20350;-80
2021/07/21 09:04:23;;;;;;;13.23;3.95;;;;;;;;;;5071658;28;20023;-79
2021/07/21 09:06:48;;;;;;;9.07;4.05;;;;;;;;;;5070903;28;20048;-80
2021/07/21 09:09:13;;;;;;;7.90;4.07;;;;;;;;;;5051681;28;20071;-80
2021/07/21 09:11:38;;;;;;;6.82;3.92;;;;;;;;;;5070498;28;20016;-80
2021/07/21 09:14:04;;;;;;;8.17;4.53;;;;;;;;;;5068757;28;20013;-80
2021/07/21 09:16:29;;;;;;;9.48;3.83;;;;;;;;;;5053190;28;20027;-80
2021/07/21 09:18:57;;;;;;;7.45;3.92;;;;;;;;;;5070914;28;20051;-80
2021/07/21 09:21:23;;;;;;;7.22;3.92;;;;;;;;;;5070199;28;20013;-80
2021/07/21 09:23:50;;;;;;;7.30;4.43;;;;;;;;;;5070635;28;20024;-80
2021/07/21 09:26:24;;;;;;;9.82;4.80;;;;;;;;;;5052394;28;20418;-80
2021/07/21 09:28:53;;;;;;;8.82;5.00;;;;;;;;;;5066582;28;20506;-80
2021/07/21 09:31:29;;;;;;;8.25;4.65;;;;;;;;;;5054899;28;20025;-80
2021/07/21 09:33:55;;;;;;;9.32;4.65;;;;;;;;;;5072519;28;20056;-80
2021/07/21 09:36:20;;;;;;;6.55;4.22;;;;;;;;;;5076124;28;20039;-80
2021/07/21 09:38:46;;;;;;;8.32;4.65;;;;;;;;;;5059110;28;20973;-80
2021/07/21 09:41:18;;;;;;;7.28;4.75;;;;;;;;;;5053708;28;20044;-80
2021/07/21 09:43:44;;;;;;;8.48;5.07;;;;;;;;;;5066778;28;20097;-79
2021/07/21 09:46:10;;;;;;;9.23;4.75;;;;;;;;;;5051696;28;20119;-79
2021/07/21 09:48:35;;;;;;;8.02;4.50;;;;;;;;;;5049286;28;20541;-80
2021/07/21 09:51:01;;;;;;;9.50;5.23;;;;;;;;;;5050440;28;20024;-80
2021/07/21 09:53:35;;;;;;;7.50;4.47;;;;;;;;;;5053613;28;20052;-80
2021/07/21 09:56:00;;;;;;;8.10;5.13;;;;;;;;;;5073683;28;20028;-80
2021/07/21 09:58:31;;;;;;;8.10;5.00;;;;;;;;;;5079863;28;20032;-80
2021/07/21 10:00:56;;;;;;;10.70;5.45;;;;;;;;;;5085082;28;20290;-80
2021/07/21 10:03:22;;;;;;;9.83;4.00;;;;;;;;;;5080839;28;20039;-80
2021/07/21 10:05:58;;;;;;;9.52;4.68;;;;;;;;;;5077023;28;20036;-80
2021/07/21 10:08:29;;;;;;;7.60;4.93;;;;;;;;;;5071671;28;20020;-80
2021/07/21 10:10:55;;;;;;;7.35;4.70;;;;;;;;;;5081655;28;20020;-80
2021/07/21 10:13:20;;;;;;;10.20;5.10;;;;;;;;;;5073063;28;20537;-80
2021/07/21 10:15:47;;;;;;;8.23;4.55;;;;;;;;;;5054481;28;20384;-81
2021/07/21 10:18:14;;;;;;;10.82;5.18;;;;;;;;;;5072401;28;20020;-80
2021/07/21 10:20:40;;;;;;;10.10;5.60;;;;;;;;;;5054388;28;20020;-79
2021/07/21 10:23:05;;;;;;;8.73;6.18;;;;;;;;;;5055552;28;20492;-80
2021/07/21 10:25:31;;;;;;;10.95;5.55;;;;;;;;;;5055060;28;20021;-79
2021/07/21 10:27:57;;;;;;;8.53;5.03;;;;;;;;;;5047588;28;20026;-80
2021/07/21 10:30:23;;;;;;;10.35;6.72;;;;;;;;;;5054007;28;20591;-80
2021/07/21 10:32:49;;;;;;;15.32;7.45;;;;;;;;;;5071424;28;20027;-80
2021/07/21 10:35:14;;;;;;;11.30;6.47;;;;;;;;;;5050281;28;20519;-79
2021/07/21 10:37:39;;;;;;;12.02;6.63;;;;;;;;;;5052416;28;20025;-79
2021/07/21 10:40:06;;;;;;;12.13;5.97;;;;;;;;;;5052071;28;20017;-80
2021/07/21 10:42:32;;;;;;;8.57;5.68;;;;;;;;;;5051295;28;20021;-80
2021/07/21 10:45:11;;;;;;;10.18;6.03;;;;;;;;;;5046467;28;20021;-80
2021/07/21 10:47:42;;;;;;;11.48;5.85;;;;;;;;;;5063627;28;20052;-80
2021/07/21 10:50:24;;;;;;;9.25;6.32;;;;;;;;;;5061656;28;20016;-79
2021/07/21 10:53:01;;;;;;;12.70;5.95;;;;;;;;;;5047410;28;20474;-80
2021/07/21 10:55:29;;;;;;;7.10;4.22;;;;;;;;;;5041880;28;20153;-78
2021/07/21 11:00:54;;;;;;;13.90;5.53;;;;;;;;;;5058156;28;20032;-80
2021/07/21 11:03:26;;;;;;;12.52;6.07;;;;;;;;;;5060847;28;20024;-80
2021/07/21 11:06:02;;;;;;;12.18;6.15;;;;;;;;;;5056770;28;20020;-79
2021/07/21 11:08:27;;;;;;;12.77;5.50;;;;;;;;;;5056366;28;20012;-79
2021/07/21 11:10:54;;;;;;;9.30;6.18;;;;;;;;;;5042124;28;20081;-79
2021/07/21 11:13:29;;;;;;;12.13;6.28;;;;;;;;;;5058622;28;20153;-79
2021/07/21 11:15:55;;;;;;;15.48;6.00;;;;;;;;;;5042329;28;20024;-79
2021/07/21 11:18:23;;;;;;;12.13;6.00;;;;;;;;;;5063553;28;20044;-79
2021/07/21 11:20:59;;;;;;;10.00;6.57;;;;;;;;;;5058770;28;20029;-80
2021/07/21 11:23:43;;;;;;;10.82;6.88;;;;;;;;;;5040718;28;20046;-80
2021/07/21 11:26:27;;;;;;;10.70;6.82;;;;;;;;;;5056877;28;20582;-79
2021/07/21 11:28:52;;;;;;;9.40;6.35;;;;;;;;;;5039369;28;20020;-80
2021/07/21 11:31:17;;;;;;;9.18;5.97;;;;;;;;;;5058136;28;20484;-80
2021/07/21 11:33:55;;;;;;;9.80;6.28;;;;;;;;;;5058987;28;20163;-80
2021/07/21 11:36:39;;;;;;;10.52;6.68;;;;;;;;;;5037406;28;20388;-79
2021/07/21 11:39:05;;;;;;;10.27;6.00;;;;;;;;;;5042340;28;20733;-79
2021/07/21 11:41:47;;;;;;;11.23;6.32;;;;;;;;;;5061871;28;20116;-82
2021/07/21 11:44:29;;;;;;;15.45;6.50;;;;;;;;;;5042298;28;20055;-83
2021/07/21 11:46:56;;;;;;;11.13;6.47;;;;;;;;;;5045262;28;20048;-83
2021/07/21 11:49:22;;;;;;;9.88;6.25;;;;;;;;;;5066382;28;20416;-82
2021/07/21 11:51:48;;;;;;;10.82;6.43;;;;;;;;;;5067890;28;20164;-80
2021/07/21 11:54:18;;;;;;;11.25;7.03;;;;;;;;;;5076183;28;20021;-80
2021/07/21 11:56:43;;;;;;;;;;;;;;;;;;5051367;28;20030;-80
2021/07/21 11:59:08;;;;;;;12.23;7.07;;;;;;;;;;5063302;28;20039;-80
2021/07/21 12:01:33;;;;;;;19.50;7.53;;;;;;;;;;5056973;28;20028;-79
2021/07/21 12:03:59;;;;;;;14.13;7.13;;;;;;;;;;5056870;28;21026;-80
2021/07/21 12:06:25;;;;;;;10.83;6.83;;;;;;;;;;5060970;28;20024;-79
2021/07/21 12:08:55;;;;;;;11.13;7.32;;;;;;;;;;5055932;28;20028;-79
2021/07/21 12:11:20;;;;;;;;;;;;;;;;;;5037296;28;20025;-79
2021/07/21 12:13:45;;;;;;;12.38;7.22;;;;;;;;;;5061176;28;19961;-80
2021/07/21 12:16:10;;;;;;;15.87;6.70;;;;;;;;;;5054481;28;20488;-80
2021/07/21 12:18:36;;;;;;;10.90;6.97;;;;;;;;;;5056449;28;20282;-79
2021/07/21 12:21:06;;;;;;;10.48;6.55;;;;;;;;;;5056540;28;20271;-80
2021/07/21 12:23:31;;;;;;;12.05;6.80;;;;;;;;;;5040738;28;20020;-80
2021/07/21 12:26:02;;;;;;;11.60;7.10;;;;;;;;;;5057160;28;20394;-80
2021/07/21 12:28:28;;;;;;;11.45;6.78;;;;;;;;;;5054316;28;20020;-79
2021/07/21 12:30:57;;;;;;;9.83;6.03;;;;;;;;;;5058466;28;20087;-80
2021/07/21 12:33:22;;;;;;;15.32;7.82;;;;;;;;;;5053452;28;20277;-80
2021/07/21 12:35:47;;;;;;;12.68;6.90;;;;;;;;;;5052453;28;20066;-80
2021/07/21 12:38:12;;;;;;;10.10;6.60;;;;;;;;;;5051226;28;20542;-80
2021/07/21 12:40:37;;;;;;;15.07;6.82;;;;;;;;;;5058612;28;20302;-79
2021/07/21 12:43:03;;;;;;;10.25;6.55;;;;;;;;;;5042903;28;20020;-80
2021/07/21 12:45:32;;;;;;;11.13;6.65;;;;;;;;;;5049890;28;20021;-80
2021/07/21 12:47:57;;;;;;;14.38;7.70;;;;;;;;;;5041987;28;20443;-80
2021/07/21 12:50:27;;;;;;;11.02;7.20;;;;;;;;;;5040099;28;20103;-80
2021/07/21 12:52:52;;;;;;;;;;;;;;;;;;5053942;28;20031;-79
2021/07/21 12:55:29;;;;;;;10.80;6.82;;;;;;;;;;5062925;28;19994;-79
2021/07/21 12:57:57;;;;;;;11.15;7.25;;;;;;;;;;5063934;28;20027;-80
2021/07/21 13:00:23;;;;;;;11.60;7.57;;;;;;;;;;5068650;28;20032;-79
2021/07/21 13:02:56;;;;;;;12.20;8.43;;;;;;;;;;5069920;28;20013;-79
2021/07/21 13:05:41;;;;;;;10.45;6.88;;;;;;;;;;5069073;28;20176;-79
2021/07/21 13:08:10;;;;;;;11.35;6.63;;;;;;;;;;5048095;28;20048;-80
2021/07/21 13:10:37;;;;;;;11.63;6.53;;;;;;;;;;5030993;28;20025;-80
2021/07/21 13:13:02;;;;;;;10.98;6.50;;;;;;;;;;5049945;28;20021;-80
2021/07/21 13:15:37;;;;;;;14.23;6.72;;;;;;;;;;5065584;28;20035;-80
2021/07/21 13:18:02;;;;;;;17.02;7.30;;;;;;;;;;5069124;28;20027;-80
2021/07/21 13:20:31;;;;;;;17.17;7.33;;;;;;;;;;5051111;28;20114;-79
2021/07/21 13:23:15;;;;;;;9.83;6.50;;;;;;;;;;5052928;28;20263;-80
2021/07/21 13:25:41;;;;;;;13.00;7.25;;;;;;;;;;5051065;28;20281;-80
2021/07/21 13:28:27;;;;;;;14.50;8.75;;;;;;;;;;5052303;28;20021;-80
2021/07/21 13:30:53;;;;;;;11.02;7.10;;;;;;;;;;5051881;28;20047;-80
2021/07/21 13:33:19;;;;;;;13.70;6.70;;;;;;;;;;5070431;28;20367;-80
2021/07/21 13:35:57;;;;;;;13.85;7.78;;;;;;;;;;5070245;28;20035;-79
2021/07/21 13:38:23;;;;;;;14.77;7.82;;;;;;;;;;5068596;28;20025;-80
2021/07/21 13:40:55;;;;;;;14.27;7.40;;;;;;;;;;5051940;28;20027;-80
2021/07/21 13:43:24;;;;;;;11.70;7.03;;;;;;;;;;5051492;28;20126;-80
2021/07/21 13:45:49;;;;;;;14.93;7.38;;;;;;;;;;5050389;28;20119;-80
2021/07/21 13:48:23;;;;;;;10.45;6.90;;;;;;;;;;5068208;28;20150;-80
2021/07/21 13:51:07;;;;;;;13.13;6.97;;;;;;;;;;5068773;28;20017;-80
2021/07/21 13:53:33;;;;;;;10.52;6.78;;;;;;;;;;5067383;28;20067;-80
2021/07/21 13:55:58;;;;;;;12.07;6.77;;;;;;;;;;5050195;28;20511;-80
2021/07/21 13:58:23;;;;;;;10.07;6.73;;;;;;;;;;5067176;28;20021;-80
2021/07/21 14:00:48;;;;;;;14.53;7.13;;;;;;;;;;5067991;28;20032;-82
2021/07/21 14:03:19;;;;;;;11.17;7.23;;;;;;;;;;5067927;28;20588;-81
2021/07/21 14:05:44;;;;;;;11.77;7.38;;;;;;;;;;5067904;28;20115;-81
2021/07/21 14:08:09;;;;;;;19.40;6.97;;;;;;;;;;5066859;28;20103;-81
2021/07/21 14:10:35;;;;;;;11.50;7.03;;;;;;;;;;5068312;28;20020;-81
2021/07/21 14:13:00;;;;;;;14.70;7.47;;;;;;;;;;5050394;28;20251;-81
2021/07/21 14:15:25;;;;;;;16.83;7.80;;;;;;;;;;5066734;28;20384;-81
2021/07/21 14:17:50;;;;;;;10.87;6.60;;;;;;;;;;5067472;28;20206;-82
2021/07/21 14:20:16;;;;;;;12.30;6.88;;;;;;;;;;5066307;28;20274;-81
2021/07/21 14:22:41;;;;;;;14.30;7.60;;;;;;;;;;5054032;28;20542;-81
2021/07/21 14:25:07;;;;;;;13.55;7.03;;;;;;;;;;5049250;28;20601;-81
2021/07/21 14:27:32;;;;;;;17.10;7.22;;;;;;;;;;5068171;28;20027;-81
2021/07/21 14:29:57;;;;;;;14.38;7.78;;;;;;;;;;5067916;28;20021;-81
2021/07/21 14:32:22;;;;;;;10.93;7.33;;;;;;;;;;5069411;28;20453;-81
2021/07/21 14:34:47;;;;;;;10.93;6.47;;;;;;;;;;5068440;28;20027;-81
2021/07/21 14:37:13;;;;;;;9.43;6.40;;;;;;;;;;5068063;28;20522;-81
2021/07/21 14:39:38;;;;;;;13.75;7.20;;;;;;;;;;5071645;28;20021;-82